createdAt,value
2022-12-19T00:00:02.207Z,101537.19
2022-12-19T00:02:52.716Z,101545.66
2022-12-19T00:05:38.730Z,101534.97
2022-12-19T00:08:25.649Z,101525.28
2022-12-19T00:11:07.576Z,101517.34
2022-12-19T00:13:44.175Z,101512.50
2022-12-19T00:16:21.694Z,101528.34
2022-12-19T00:18:57.555Z,101526.31
2022-12-19T00:21:35.155Z,101527.16
2022-12-19T00:24:21.196Z,101510.84
2022-12-19T00:26:54.370Z,101519.41
2022-12-19T00:29:30.262Z,101506.63
2022-12-19T00:32:15.049Z,101504.66
2022-12-19T00:34:49.330Z,101502.94
2022-12-19T00:37:21.995Z,101498.91
2022-12-19T00:39:54.764Z,101493.72
2022-12-19T00:42:28.835Z,101494.69
2022-12-19T00:45:01.614Z,101498.25
2022-12-19T00:47:35.194Z,101492.19
2022-12-19T00:50:08.713Z,101494.25
2022-12-19T00:52:41.368Z,101498.03
2022-12-19T00:55:18.800Z,101483.16
2022-12-19T00:57:52.932Z,101471.72
2022-12-19T01:00:28.116Z,101462.06
2022-12-19T01:03:02.258Z,101462.44
2022-12-19T01:05:43.537Z,101465.97
2022-12-19T01:08:16.567Z,101472.78
2022-12-19T01:10:51.222Z,101474.81
2022-12-19T01:13:28.294Z,101457.22
2022-12-19T01:16:11.905Z,101464.44
2022-12-19T01:18:44.548Z,101451.16
2022-12-19T01:21:17.159Z,101445.38
2022-12-19T01:23:49.750Z,101449.88
2022-12-19T01:26:22.446Z,101437.53
2022-12-19T01:28:55.023Z,101437.69
2022-12-19T01:31:27.955Z,101428.50
2022-12-19T01:34:01.446Z,101432.78
2022-12-19T01:36:36.629Z,101426.53
2022-12-19T01:39:13.191Z,101436.91
2022-12-19T01:41:45.766Z,101435.31
2022-12-19T01:44:18.619Z,101441.78
2022-12-19T01:46:59.984Z,101427.69
2022-12-19T01:49:37.681Z,101438.84
2022-12-19T01:52:10.658Z,101432.00
2022-12-19T01:54:48.243Z,101428.50
2022-12-19T01:57:21.746Z,101426.66
2022-12-19T02:00:01.007Z,101429.13
2022-12-19T02:02:41.270Z,101428.41
2022-12-19T02:05:14.056Z,101425.78
2022-12-19T02:07:48.328Z,101416.84
2022-12-19T02:10:21.218Z,101404.56
2022-12-19T02:12:54.094Z,101406.31
2022-12-19T02:15:36.575Z,101398.03
2022-12-19T02:18:29.081Z,101394.56
2022-12-19T02:21:36.641Z,101382.13
2022-12-19T02:24:26.787Z,101389.22
2022-12-19T02:27:21.774Z,101377.94
2022-12-19T02:30:15.871Z,101376.31
2022-12-19T02:33:02.088Z,101373.06
2022-12-19T02:36:20.895Z,101366.84
2022-12-19T02:39:08.675Z,101368.78
2022-12-19T02:41:57.215Z,101369.00
2022-12-19T02:44:37.778Z,101362.22
2022-12-19T02:47:12.318Z,101356.28
2022-12-19T02:49:45.037Z,101346.88
2022-12-19T02:52:20.558Z,101359.94
2022-12-19T02:55:16.912Z,101351.34
2022-12-19T02:57:58.599Z,101347.16
2022-12-19T03:00:48.522Z,101341.91
2022-12-19T03:03:50.615Z,101334.97
2022-12-19T03:06:53.151Z,101337.66
2022-12-19T03:09:52.385Z,101343.09
2022-12-19T03:12:39.635Z,101343.06
2022-12-19T03:15:19.555Z,101333.41
2022-12-19T03:17:56.355Z,101331.91
2022-12-19T03:20:55.071Z,101325.88
2022-12-19T03:23:31.231Z,101325.09
2022-12-19T03:26:20.336Z,101321.00
2022-12-19T03:29:08.250Z,101326.28
2022-12-19T03:31:44.276Z,101312.50
2022-12-19T03:35:15.634Z,101323.16
2022-12-19T03:37:52.981Z,101318.78
2022-12-19T03:40:31.179Z,101326.91
2022-12-19T03:43:17.446Z,101314.00
2022-12-19T03:46:21.260Z,101314.91
2022-12-19T03:48:55.673Z,101308.84
2022-12-19T03:51:56.371Z,101319.56
2022-12-19T03:54:42.310Z,101305.69
2022-12-19T03:57:23.914Z,101307.56
2022-12-19T04:00:13.538Z,101307.56
2022-12-19T04:03:03.631Z,101307.75
2022-12-19T04:05:40.091Z,101303.34
2022-12-19T04:08:25.901Z,101296.44
2022-12-19T04:11:10.091Z,101297.41
2022-12-19T04:13:52.553Z,101314.00
2022-12-19T04:16:50.539Z,101295.81
2022-12-19T04:19:49.658Z,101286.16
2022-12-19T04:22:47.146Z,101285.38
2022-12-19T04:25:34.442Z,101288.97
2022-12-19T04:28:24.679Z,101281.19
2022-12-19T04:31:01.992Z,101280.34
2022-12-19T04:33:48.079Z,101280.31
2022-12-19T04:36:32.618Z,101283.03
2022-12-19T04:42:16.549Z,101282.28
2022-12-19T04:45:04.577Z,101280.53
2022-12-19T04:47:48.277Z,101279.69
2022-12-19T04:50:38.061Z,101278.81
2022-12-19T04:56:19.814Z,101277.16
2022-12-19T04:59:49.153Z,101271.84
2022-12-19T05:02:52.135Z,101277.16
2022-12-19T05:05:59.631Z,101270.25
2022-12-19T05:08:49.535Z,101283.38
2022-12-19T05:11:28.690Z,101267.63
2022-12-19T05:14:04.300Z,101264.94
2022-12-19T05:17:00.534Z,101262.53
2022-12-19T05:19:34.209Z,101268.66
2022-12-19T05:22:14.026Z,101264.16
2022-12-19T05:24:48.854Z,101267.72
2022-12-19T05:27:30.907Z,101263.41
2022-12-19T05:30:04.746Z,101265.13
2022-12-19T05:32:37.722Z,101258.16
2022-12-19T05:35:19.132Z,101259.88
2022-12-19T05:37:54.761Z,101259.13
2022-12-19T05:40:30.984Z,101263.50
2022-12-19T05:43:04.041Z,101257.38
2022-12-19T05:45:40.806Z,101258.25
2022-12-19T05:48:16.841Z,101270.59
2022-12-19T05:50:50.614Z,101268.00
2022-12-19T05:53:26.096Z,101262.75
2022-12-19T05:56:18.858Z,101258.34
2022-12-19T05:58:53.587Z,101275.88
2022-12-19T06:01:32.407Z,101264.53
2022-12-19T06:04:10.125Z,101271.53
2022-12-19T06:06:44.744Z,101270.66
2022-12-19T06:09:20.943Z,101268.94
2022-12-19T06:11:54.782Z,101268.06
2022-12-19T06:14:37.992Z,101266.31
2022-12-19T06:17:31.047Z,101271.56
2022-12-19T06:20:12.601Z,101266.31
2022-12-19T06:23:02.143Z,101269.84
2022-12-19T06:25:39.665Z,101267.19
2022-12-19T06:28:22.547Z,101268.13
2022-12-19T06:31:08.908Z,101265.53
2022-12-19T06:33:46.411Z,101274.28
2022-12-19T06:36:26.509Z,101271.69
2022-12-19T06:39:05.786Z,101267.31
2022-12-19T06:41:59.982Z,101285.72
2022-12-19T06:44:36.625Z,101282.19
2022-12-19T06:47:29.776Z,101290.94
2022-12-19T06:52:54.950Z,101279.56
2022-12-19T06:55:32.879Z,101284.84
2022-12-19T06:58:19.136Z,101285.72
2022-12-19T07:01:36.330Z,101283.06
2022-12-19T07:04:20.449Z,101290.13
2022-12-19T07:07:08.875Z,101284.00
2022-12-19T07:09:47.992Z,101286.56
2022-12-19T07:12:37.786Z,101275.19
2022-12-19T07:15:21.800Z,101278.72
2022-12-19T07:18:09.622Z,101288.41
2022-12-19T07:20:55.356Z,101278.72
2022-12-19T07:23:44.843Z,101287.50
2022-12-19T07:26:28.974Z,101290.13
2022-12-19T07:29:13.035Z,101285.78
2022-12-19T07:31:57.601Z,101281.38
2022-12-19T07:34:59.091Z,101286.66
2022-12-19T07:37:45.816Z,101278.72
2022-12-19T07:43:45.848Z,101289.28
2022-12-19T07:46:58.331Z,101290.16
2022-12-19T07:49:48.682Z,101284.03
2022-12-19T07:52:31.544Z,101286.66
2022-12-19T07:55:21.074Z,101295.44
2022-12-19T07:58:20.527Z,101294.56
2022-12-19T08:01:07.281Z,101305.97
2022-12-19T08:04:19.412Z,101305.97
2022-12-19T08:09:58.834Z,101308.63
2022-12-19T08:12:42.409Z,101314.78
2022-12-19T08:18:41.082Z,101307.75
2022-12-19T08:31:14.266Z,101320.94
2022-12-19T08:43:28.726Z,101318.28
2022-12-19T08:46:35.315Z,101311.25
2022-12-19T08:59:10.878Z,101306.88
2022-12-19T09:02:17.989Z,101315.63
2022-12-19T09:09:00.347Z,101313.84
2022-12-19T09:12:32.400Z,101320.88
2022-12-19T09:15:10.614Z,101328.81
2022-12-19T09:17:53.449Z,101323.53
2022-12-19T09:20:36.244Z,101333.22
2022-12-19T09:23:30.003Z,101328.78
2022-12-19T09:26:16.218Z,101338.47
2022-12-19T09:28:49.909Z,101334.94
2022-12-19T09:31:31.265Z,101335.81
2022-12-19T09:34:41.387Z,101335.84
2022-12-19T09:37:20.350Z,101327.91
2022-12-19T09:40:00.166Z,101330.47
2022-12-19T09:43:13.586Z,101330.47
2022-12-19T09:46:30.504Z,101323.44
2022-12-19T09:49:45.380Z,101336.63
2022-12-19T09:52:39.047Z,101329.47
2022-12-19T09:55:28.420Z,101323.31
2022-12-19T09:58:45.340Z,101335.63
2022-12-19T10:01:28.721Z,101346.16
2022-12-19T10:04:16.921Z,101339.16
2022-12-19T10:07:21.141Z,101347.09
2022-12-19T10:12:37.464Z,101339.09
2022-12-19T10:13:48.331Z,101347.00
2022-12-19T10:17:27.084Z,101340.88
2022-12-19T10:20:27.295Z,101339.16
2022-12-19T10:23:19.401Z,101336.53
2022-12-19T10:26:04.860Z,101330.31
2022-12-19T10:29:15.325Z,101333.72
2022-12-19T10:32:02.271Z,101347.88
2022-12-19T10:34:43.867Z,101346.06
2022-12-19T10:37:27.531Z,101346.03
2022-12-19T10:40:37.227Z,101344.31
2022-12-19T10:43:49.562Z,101340.03
2022-12-19T10:46:37.559Z,101342.66
2022-12-19T10:49:19.203Z,101347.88
2022-12-19T10:52:11.169Z,101344.38
2022-12-19T10:54:44.180Z,101347.91
2022-12-19T10:57:44.913Z,101344.41
2022-12-19T11:00:21.042Z,101347.97
2022-12-19T11:03:18.813Z,101337.44
2022-12-19T11:08:55.371Z,101336.56
2022-12-19T11:14:49.930Z,101334.88
2022-12-19T11:19:53.564Z,101336.56
2022-12-19T11:27:27.362Z,101316.41
2022-12-19T11:29:19.827Z,101312.69
2022-12-19T11:30:45.492Z,101319.78
2022-12-19T11:30:47.827Z,101315.31
2022-12-19T11:32:50.059Z,101310.06
2022-12-19T11:35:37.080Z,101296.84
2022-12-19T11:38:17.439Z,101295.91
2022-12-19T11:41:04.320Z,101294.03
2022-12-19T11:44:00.233Z,101298.47
2022-12-19T11:47:03.874Z,101292.31
2022-12-19T11:49:50.475Z,101282.56
2022-12-19T11:53:09.350Z,101279.88
2022-12-19T11:55:54.555Z,101280.72
2022-12-19T11:58:30.288Z,101278.09
2022-12-19T12:01:44.264Z,101286.78
2022-12-19T12:04:44.978Z,101277.91
2022-12-19T12:07:41.517Z,101279.56
2022-12-19T12:15:13.785Z,101267.09
2022-12-19T12:22:42.136Z,101267.03
2022-12-19T12:31:05.234Z,101265.31
2022-12-19T12:31:22.735Z,101257.22
2022-12-19T12:31:38.890Z,101248.34
2022-12-19T12:31:39.615Z,101249.16
2022-12-19T12:35:51.347Z,101241.94
2022-12-19T12:41:04.534Z,101245.44
2022-12-19T12:44:09.203Z,101248.78
2022-12-19T12:47:07.047Z,101238.09
2022-12-19T12:50:08.482Z,101244.34
2022-12-19T12:52:48.307Z,101234.50
2022-12-19T12:55:34.006Z,101246.06
2022-12-19T12:58:43.349Z,101245.09
2022-12-19T13:01:28.211Z,101238.19
2022-12-19T13:04:13.132Z,101230.00
2022-12-19T13:06:51.691Z,101220.22
2022-12-19T13:09:35.470Z,101221.13
2022-12-19T13:12:47.327Z,101201.81
2022-12-19T13:15:28.761Z,101202.50
2022-12-19T13:18:38.046Z,101195.47
2022-12-19T13:21:11.324Z,101182.06
2022-12-19T13:23:49.780Z,101175.25
2022-12-19T13:26:50.069Z,101183.25
2022-12-19T13:29:35.086Z,101177.91
2022-12-19T13:32:16.483Z,101184.06
2022-12-19T13:35:20.576Z,101165.84
2022-12-19T13:39:57.111Z,101165.69
2022-12-19T13:41:49.472Z,101160.28
2022-12-19T13:44:22.718Z,101156.81
2022-12-19T13:46:56.051Z,101153.19
2022-12-19T13:49:35.361Z,101163.16
2022-12-19T13:52:15.464Z,101164.13
2022-12-19T13:54:52.207Z,101164.09
2022-12-19T13:57:32.053Z,101169.53
2022-12-19T14:00:22.628Z,101169.66
2022-12-19T14:02:59.063Z,101160.78
2022-12-19T14:06:17.833Z,101158.28
2022-12-19T14:08:34.727Z,101139.53
2022-12-19T14:11:42.922Z,101150.31
2022-12-19T14:14:27.550Z,101132.69
2022-12-19T14:17:23.673Z,101124.78
2022-12-19T14:20:34.054Z,101131.69
2022-12-19T14:22:49.227Z,101138.75
2022-12-19T14:26:05.915Z,101127.28
2022-12-19T14:28:38.296Z,101127.41
2022-12-19T14:31:17.794Z,101136.00
2022-12-19T14:34:11.610Z,101144.00
2022-12-19T14:36:54.534Z,101121.91
2022-12-19T14:39:33.286Z,101122.00
2022-12-19T14:43:57.045Z,101125.44
2022-12-19T14:52:08.243Z,101109.66
2022-12-19T14:54:13.813Z,101108.66
2022-12-19T14:54:41.619Z,101115.97
2022-12-19T14:57:54.890Z,101130.78
2022-12-19T15:00:50.483Z,101137.91
2022-12-19T15:03:28.269Z,101130.88
2022-12-19T15:07:09.249Z,101129.06
2022-12-19T15:11:07.922Z,101124.75
2022-12-19T15:14:48.422Z,101128.97
2022-12-19T15:16:00.674Z,101123.00
2022-12-19T15:18:33.965Z,101134.44
2022-12-19T15:21:12.526Z,101137.09
2022-12-19T15:23:45.819Z,101142.44
2022-12-19T15:26:29.487Z,101149.41
2022-12-19T15:29:10.027Z,101168.59
2022-12-19T15:31:44.796Z,101162.63
2022-12-19T15:34:40.506Z,101151.25
2022-12-19T15:37:19.230Z,101155.53
2022-12-19T15:39:51.873Z,101157.16
2022-12-19T15:42:27.741Z,101175.72
2022-12-19T15:45:01.316Z,101171.28
2022-12-19T15:47:37.625Z,101166.75
2022-12-19T15:50:29.532Z,101175.53
2022-12-19T15:53:24.402Z,101176.66
2022-12-19T15:56:04.532Z,101171.25
2022-12-19T15:58:37.312Z,101165.09
2022-12-19T16:01:09.985Z,101171.28
2022-12-19T16:03:42.754Z,101177.59
2022-12-19T16:06:15.705Z,101167.94
2022-12-19T16:08:48.277Z,101161.56
2022-12-19T16:11:24.760Z,101173.63
2022-12-19T16:13:58.817Z,101173.66
2022-12-19T16:16:31.509Z,101158.06
2022-12-19T16:19:10.163Z,101143.97
2022-12-19T16:21:42.781Z,101147.19
2022-12-19T16:24:15.311Z,101162.31
2022-12-19T16:26:57.732Z,101172.13
2022-12-19T16:29:31.334Z,101168.47
2022-12-19T16:32:04.918Z,101171.28
2022-12-19T16:34:37.486Z,101161.50
2022-12-19T16:37:10.338Z,101167.69
2022-12-19T16:39:42.991Z,101158.97
2022-12-19T16:42:17.927Z,101156.16
2022-12-19T16:44:50.625Z,101144.75
2022-12-19T16:47:23.387Z,101147.56
2022-12-19T16:49:56.079Z,101134.06
2022-12-19T16:52:29.153Z,101143.13
2022-12-19T16:55:02.077Z,101134.44
2022-12-19T16:57:34.937Z,101131.72
2022-12-19T17:00:15.499Z,101149.50
2022-12-19T17:03:02.128Z,101154.84
2022-12-19T17:05:35.639Z,101144.28
2022-12-19T17:08:31.870Z,101148.59
2022-12-19T17:11:05.303Z,101159.25
2022-12-19T17:13:38.058Z,101153.09
2022-12-19T17:16:10.849Z,101168.09
2022-12-19T17:18:45.878Z,101163.53
2022-12-19T17:21:22.203Z,101174.09
2022-12-19T17:23:54.881Z,101167.75
2022-12-19T17:26:27.527Z,101165.25
2022-12-19T17:29:00.504Z,101158.13
2022-12-19T17:31:39.103Z,101153.78
2022-12-19T17:34:22.956Z,101158.06
2022-12-19T17:37:04.246Z,101166.94
2022-12-19T17:39:42.356Z,101154.44
2022-12-19T17:42:25.943Z,101147.38
2022-12-19T17:44:58.658Z,101150.81
2022-12-19T17:47:31.376Z,101149.16
2022-12-19T17:50:05.097Z,101138.72
2022-12-19T17:52:37.835Z,101141.31
2022-12-19T17:55:24.062Z,101146.69
2022-12-19T17:57:57.369Z,101155.47
2022-12-19T18:00:33.476Z,101148.66
2022-12-19T18:03:25.741Z,101148.41
2022-12-19T18:05:58.522Z,101133.59
2022-12-19T18:08:32.975Z,101136.25
2022-12-19T18:11:17.847Z,101152.97
2022-12-19T18:13:51.419Z,101151.25
2022-12-19T18:16:30.891Z,101146.75
2022-12-19T18:19:05.265Z,101153.75
2022-12-19T18:21:37.858Z,101152.72
2022-12-19T18:24:16.531Z,101161.59
2022-12-19T18:26:49.322Z,101159.03
2022-12-19T18:29:22.500Z,101149.34
2022-12-19T18:31:55.765Z,101141.25
2022-12-19T18:34:33.576Z,101155.50
2022-12-19T18:37:14.937Z,101150.81
2022-12-19T18:39:47.701Z,101159.66
2022-12-19T18:42:21.628Z,101152.69
2022-12-19T18:44:54.364Z,101166.00
2022-12-19T18:47:27.743Z,101163.28
2022-12-19T18:50:00.417Z,101149.94
2022-12-19T18:52:33.465Z,101149.13
2022-12-19T18:55:15.819Z,101157.00
2022-12-19T18:57:49.916Z,101150.81
2022-12-19T19:00:26.346Z,101163.28
2022-12-19T19:03:04.117Z,101159.69
2022-12-19T19:05:41.078Z,101165.81
2022-12-19T19:08:20.248Z,101163.94
2022-12-19T19:10:55.126Z,101160.47
2022-12-19T19:13:28.199Z,101166.63
2022-12-19T19:16:07.003Z,101166.75
2022-12-19T19:18:41.945Z,101176.25
2022-12-19T19:21:16.527Z,101171.13
2022-12-19T19:24:00.444Z,101170.03
2022-12-19T19:26:33.100Z,101178.97
2022-12-19T19:29:05.914Z,101176.41
2022-12-19T19:31:42.610Z,101165.44
2022-12-19T19:34:32.203Z,101183.19
2022-12-19T19:37:11.214Z,101168.09
2022-12-19T19:39:44.050Z,101176.28
2022-12-19T19:42:18.790Z,101174.31
2022-12-19T19:44:51.454Z,101179.84
2022-12-19T19:47:29.213Z,101185.34
2022-12-19T19:50:02.051Z,101180.09
2022-12-19T19:52:34.620Z,101169.38
2022-12-19T19:55:09.927Z,101179.31
2022-12-19T19:57:42.725Z,101179.34
2022-12-19T20:00:16.020Z,101184.63
2022-12-19T20:02:49.678Z,101183.00
2022-12-19T20:05:22.969Z,101184.63
2022-12-19T20:07:56.369Z,101178.53
2022-12-19T20:10:30.446Z,101188.22
2022-12-19T20:13:03.085Z,101197.06
2022-12-19T20:15:35.950Z,101167.91
2022-12-19T20:18:09.097Z,101183.75
2022-12-19T20:20:43.025Z,101172.34
2022-12-19T20:23:15.741Z,101181.13
2022-12-19T20:25:49.907Z,101188.22
2022-12-19T20:28:22.679Z,101179.44
2022-12-19T20:30:55.490Z,101186.56
2022-12-19T20:33:28.965Z,101181.19
2022-12-19T20:36:11.620Z,101191.06
2022-12-19T20:38:44.759Z,101189.31
2022-12-19T20:41:18.332Z,101196.28
2022-12-19T20:43:52.919Z,101189.28
2022-12-19T20:46:26.060Z,101190.16
2022-12-19T20:48:58.792Z,101201.69
2022-12-19T20:51:31.413Z,101184.06
2022-12-19T20:54:05.249Z,101191.19
2022-12-19T20:56:38.297Z,101185.97
2022-12-19T20:59:11.384Z,101184.09
2022-12-19T21:01:44.221Z,101191.25
2022-12-19T21:04:17.188Z,101190.34
2022-12-19T21:06:49.925Z,101193.88
2022-12-19T21:09:22.557Z,101187.69
2022-12-19T21:11:55.241Z,101188.53
2022-12-19T21:14:28.085Z,101197.38
2022-12-19T21:17:00.656Z,101191.13
2022-12-19T21:19:33.496Z,101193.88
2022-12-19T21:22:06.118Z,101205.25
2022-12-19T21:24:38.716Z,101183.16
2022-12-19T21:27:11.376Z,101190.97
2022-12-19T21:29:43.965Z,101177.66
2022-12-19T21:32:19.079Z,101185.66
2022-12-19T21:34:54.974Z,101172.41
2022-12-19T21:37:27.645Z,101186.34
2022-12-19T21:40:00.380Z,101177.59
2022-12-19T21:42:32.942Z,101170.47
2022-12-19T21:45:06.173Z,101170.63
2022-12-19T21:47:41.951Z,101174.00
2022-12-19T21:50:15.721Z,101176.78
2022-12-19T21:52:54.283Z,101175.84
2022-12-19T21:55:28.442Z,101176.69
2022-12-19T21:58:01.114Z,101177.63
2022-12-19T22:00:33.712Z,101176.78
2022-12-19T22:03:15.251Z,101187.47
2022-12-19T22:05:48.268Z,101179.31
2022-12-19T22:08:20.849Z,101186.38
2022-12-19T22:10:53.484Z,101182.84
2022-12-19T22:13:26.348Z,101172.31
2022-12-19T22:16:02.396Z,101181.94
2022-12-19T22:18:35.337Z,101167.91
2022-12-19T22:21:12.113Z,101159.88
2022-12-19T22:23:45.724Z,101152.06
2022-12-19T22:26:23.855Z,101154.56
2022-12-19T22:28:57.847Z,101156.19
2022-12-19T22:31:33.314Z,101143.81
2022-12-19T22:34:19.481Z,101144.75
2022-12-19T22:36:52.280Z,101126.88
2022-12-19T22:39:24.922Z,101124.22
2022-12-19T22:41:57.461Z,101120.47
2022-12-19T22:44:30.043Z,101123.25
2022-12-19T22:47:02.810Z,101114.59
2022-12-19T22:49:35.508Z,101123.28
2022-12-19T22:52:08.141Z,101132.09
2022-12-19T22:54:40.924Z,101135.72
2022-12-19T22:57:13.479Z,101133.19
2022-12-19T22:59:46.076Z,101134.81
2022-12-19T23:02:18.847Z,101125.84
2022-12-19T23:04:51.563Z,101135.56
2022-12-19T23:07:24.211Z,101136.31
2022-12-19T23:09:56.860Z,101131.91
2022-12-19T23:12:29.675Z,101139.81
2022-12-19T23:15:02.385Z,101144.34
2022-12-19T23:17:34.937Z,101130.13
2022-12-19T23:20:08.930Z,101142.72
2022-12-19T23:22:41.555Z,101135.69
2022-12-19T23:25:14.170Z,101139.00
2022-12-19T23:27:47.279Z,101141.88
2022-12-19T23:30:19.914Z,101138.41
2022-12-19T23:32:52.487Z,101130.34
2022-12-19T23:35:25.165Z,101134.81
2022-12-19T23:37:57.859Z,101125.91
2022-12-19T23:40:30.505Z,101125.03
2022-12-19T23:43:03.306Z,101121.50
2022-12-19T23:45:39.064Z,101122.41
2022-12-19T23:48:11.763Z,101115.31
2022-12-19T23:50:44.793Z,101101.13
2022-12-19T23:53:17.414Z,101109.03
2022-12-19T23:55:50.451Z,101118.78
2022-12-19T23:58:24.853Z,101108.94
